sensor_id;sensor_type;location;lat;lon;timestamp;noise_LAeq;noise_LA_min;noise_LA_max;noise_LA01;noise_LA95
48967;Laerm;46511;53.148;8.204;2023-11-18T00:01:00;43.38;40.62;52.32;;
48967;Laerm;46511;53.148;8.204;2023-11-18T00:03:31;50.50;39.92;66.65;;
48967;Laerm;46511;53.148;8.204;2023-11-18T00:06:03;54.57;40.43;69.43;;
48967;Laerm;46511;53.148;8.204;2023-11-18T00:08:29;44.62;40.23;62.62;;
48967;Laerm;46511;53.148;8.204;2023-11-18T00:11:02;43.18;40.23;44.97;;
48967;Laerm;46511;53.148;8.204;2023-11-18T00:13:34;43.20;40.53;52.47;;
48967;Laerm;46511;53.148;8.204;2023-11-18T00:16:00;43.11;40.03;46.20;;
48967;Laerm;46511;53.148;8.204;2023-11-18T00:18:27;49.73;40.89;64.91;;
48967;Laerm;46511;53.148;8.204;2023-11-18T00:20:53;47.96;40.43;61.57;;
48967;Laerm;46511;53.148;8.204;2023-11-18T00:23:19;43.34;40.33;65.25;;
48967;Laerm;46511;53.148;8.204;2023-11-18T00:25:51;44.34;40.71;60.48;;
48967;Laerm;46511;53.148;8.204;2023-11-18T00:28:24;55.25;41.75;67.85;;
48967;Laerm;46511;53.148;8.204;2023-11-18T00:30:55;56.03;40.71;67.96;;
48967;Laerm;46511;53.148;8.204;2023-11-18T00:33:26;43.69;40.62;55.76;;
48967;Laerm;46511;53.148;8.204;2023-11-18T00:35:58;54.04;39.92;66.21;;
48967;Laerm;46511;53.148;8.204;2023-11-18T00:38:31;46.82;40.03;60.60;;
48967;Laerm;46511;53.148;8.204;2023-11-18T00:41:03;51.93;40.13;69.27;;
48967;Laerm;46511;53.148;8.204;2023-11-18T00:43:36;43.39;40.23;52.45;;
48967;Laerm;46511;53.148;8.204;2023-11-18T00:46:07;49.38;39.46;64.92;;
48967;Laerm;46511;53.148;8.204;2023-11-18T00:48:38;42.30;39.58;44.54;;
48967;Laerm;46511;53.148;8.204;2023-11-18T00:51:08;42.56;39.58;46.78;;
48967;Laerm;46511;53.148;8.204;2023-11-18T00:53:39;48.79;40.33;62.01;;
48967;Laerm;46511;53.148;8.204;2023-11-18T00:56:15;43.80;40.62;63.91;;
48967;Laerm;46511;53.148;8.204;2023-11-18T00:58:42;45.13;40.23;72.69;;
48967;Laerm;46511;53.148;8.204;2023-11-18T01:01:08;43.42;40.80;49.49;;
48967;Laerm;46511;53.148;8.204;2023-11-18T01:03:39;51.41;41.75;65.73;;
48967;Laerm;46511;53.148;8.204;2023-11-18T01:06:11;43.95;39.68;55.59;;
48967;Laerm;46511;53.148;8.204;2023-11-18T01:08:46;43.48;39.92;54.05;;
48967;Laerm;46511;53.148;8.204;2023-11-18T01:11:18;46.20;39.46;59.13;;
48967;Laerm;46511;53.148;8.204;2023-11-18T01:13:50;50.93;39.58;67.15;;
48967;Laerm;46511;53.148;8.204;2023-11-18T01:16:16;47.53;39.81;64.37;;
48967;Laerm;46511;53.148;8.204;2023-11-18T01:18:48;49.32;39.92;65.38;;
48967;Laerm;46511;53.148;8.204;2023-11-18T01:21:15;42.78;40.23;56.56;;
48967;Laerm;46511;53.148;8.204;2023-11-18T01:23:48;42.91;40.33;48.80;;
48967;Laerm;46511;53.148;8.204;2023-11-18T01:26:20;44.47;40.33;50.24;;
48967;Laerm;46511;53.148;8.204;2023-11-18T01:28:47;44.06;39.34;51.90;;
48967;Laerm;46511;53.148;8.204;2023-11-18T01:31:19;42.48;39.92;44.35;;
48967;Laerm;46511;53.148;8.204;2023-11-18T01:33:50;42.44;39.46;44.51;;
48967;Laerm;46511;53.148;8.204;2023-11-18T01:36:21;42.92;39.92;44.65;;
48967;Laerm;46511;53.148;8.204;2023-11-18T01:38:48;55.87;39.58;68.44;;
48967;Laerm;46511;53.148;8.204;2023-11-18T01:41:20;42.34;38.52;45.17;;
48967;Laerm;46511;53.148;8.204;2023-11-18T01:43:51;42.18;39.46;44.83;;
48967;Laerm;46511;53.148;8.204;2023-11-18T01:46:24;42.03;38.95;45.59;;
48967;Laerm;46511;53.148;8.204;2023-11-18T01:48:56;42.19;39.34;46.64;;
48967;Laerm;46511;53.148;8.204;2023-11-18T01:51:24;42.40;39.34;46.02;;
48967;Laerm;46511;53.148;8.204;2023-11-18T01:53:52;42.53;39.21;51.21;;
48967;Laerm;46511;53.148;8.204;2023-11-18T01:56:24;42.57;39.58;49.08;;
48967;Laerm;46511;53.148;8.204;2023-11-18T01:58:56;42.41;37.88;54.59;;
48967;Laerm;46511;53.148;8.204;2023-11-18T02:01:27;43.50;39.58;58.83;;
48967;Laerm;46511;53.148;8.204;2023-11-18T02:03:59;43.49;39.58;55.83;;
48967;Laerm;46511;53.148;8.204;2023-11-18T02:06:30;50.21;39.34;69.56;;
48967;Laerm;46511;53.148;8.204;2023-11-18T02:08:56;42.59;38.99;46.10;;
48967;Laerm;46511;53.148;8.204;2023-11-18T02:11:32;41.96;38.05;43.77;;
48967;Laerm;46511;53.148;8.204;2023-11-18T02:14:07;48.39;38.21;63.75;;
48967;Laerm;46511;53.148;8.204;2023-11-18T02:16:43;42.27;39.21;46.25;;
48967;Laerm;46511;53.148;8.204;2023-11-18T02:19:24;42.68;38.95;53.99;;
48967;Laerm;46511;53.148;8.204;2023-11-18T02:21:57;43.20;38.67;52.41;;
48967;Laerm;46511;53.148;8.204;2023-11-18T02:24:31;42.54;39.08;54.61;;
48967;Laerm;46511;53.148;8.204;2023-11-18T02:27:08;43.18;40.23;59.85;;
48967;Laerm;46511;53.148;8.204;2023-11-18T02:29:44;45.78;40.23;62.13;;
48967;Laerm;46511;53.148;8.204;2023-11-18T02:32:28;43.22;39.92;47.90;;
48967;Laerm;46511;53.148;8.204;2023-11-18T02:37:40;42.18;39.21;44.23;;
48967;Laerm;46511;53.148;8.204;2023-11-18T02:40:32;42.44;39.08;44.59;;
48967;Laerm;46511;53.148;8.204;2023-11-18T02:43:04;49.53;39.21;64.81;;
48967;Laerm;46511;53.148;8.204;2023-11-18T02:45:37;42.37;38.67;46.28;;
48967;Laerm;46511;53.148;8.204;2023-11-18T02:48:04;42.19;39.46;47.57;;
48967;Laerm;46511;53.148;8.204;2023-11-18T02:50:32;45.87;39.21;58.76;;
48967;Laerm;46511;53.148;8.204;2023-11-18T02:53:01;42.43;39.81;46.50;;
48967;Laerm;46511;53.148;8.204;2023-11-18T02:55:33;42.61;38.95;51.90;;
48967;Laerm;46511;53.148;8.204;2023-11-18T02:58:05;43.75;39.58;57.48;;
48967;Laerm;46511;53.148;8.204;2023-11-18T03:00:36;57.26;39.46;68.63;;
48967;Laerm;46511;53.148;8.204;2023-11-18T03:03:09;52.55;39.21;69.06;;
48967;Laerm;46511;53.148;8.204;2023-11-18T03:05:37;42.55;39.46;53.08;;
48967;Laerm;46511;53.148;8.204;2023-11-18T03:08:08;42.51;39.21;54.72;;
48967;Laerm;46511;53.148;8.204;2023-11-18T03:10:39;42.59;40.13;46.55;;
48967;Laerm;46511;53.148;8.204;2023-11-18T03:13:06;44.50;39.92;60.52;;
48967;Laerm;46511;53.148;8.204;2023-11-18T03:15:38;48.69;39.81;63.57;;
48967;Laerm;46511;53.148;8.204;2023-11-18T03:18:10;42.11;38.95;46.23;;
48967;Laerm;46511;53.148;8.204;2023-11-18T03:20:42;49.89;39.58;65.86;;
48967;Laerm;46511;53.148;8.204;2023-11-18T03:23:13;45.18;40.13;55.15;;
48967;Laerm;46511;53.148;8.204;2023-11-18T03:25:39;46.05;39.70;55.29;;
48967;Laerm;46511;53.148;8.204;2023-11-18T03:28:11;42.38;39.46;48.15;;
48967;Laerm;46511;53.148;8.204;2023-11-18T03:30:42;42.10;38.37;44.11;;
48967;Laerm;46511;53.148;8.204;2023-11-18T03:33:14;44.47;37.53;51.01;;
48967;Laerm;46511;53.148;8.204;2023-11-18T03:35:40;50.16;39.08;66.45;;
48967;Laerm;46511;53.148;8.204;2023-11-18T03:38:11;60.12;41.22;70.35;;
48967;Laerm;46511;53.148;8.204;2023-11-18T03:40:44;43.79;39.70;50.02;;
48967;Laerm;46511;53.148;8.204;2023-11-18T03:43:16;42.77;39.58;45.94;;
48967;Laerm;46511;53.148;8.204;2023-11-18T03:45:48;42.12;38.60;44.35;;
48967;Laerm;46511;53.148;8.204;2023-11-18T03:48:14;42.26;38.81;44.11;;
48967;Laerm;46511;53.148;8.204;2023-11-18T03:50:45;42.26;38.67;44.11;;
48967;Laerm;46511;53.148;8.204;2023-11-18T03:53:17;42.46;39.08;48.10;;
48967;Laerm;46511;53.148;8.204;2023-11-18T03:55:48;42.33;39.21;53.25;;
48967;Laerm;46511;53.148;8.204;2023-11-18T03:58:14;42.25;39.34;44.19;;
48967;Laerm;46511;53.148;8.204;2023-11-18T04:00:46;42.76;38.95;45.11;;
48967;Laerm;46511;53.148;8.204;2023-11-18T04:03:12;42.39;38.81;44.47;;
48967;Laerm;46511;53.148;8.204;2023-11-18T04:05:44;42.43;39.46;46.59;;
48967;Laerm;46511;53.148;8.204;2023-11-18T04:08:15;42.21;39.21;46.80;;
48967;Laerm;46511;53.148;8.204;2023-11-18T04:10:46;42.36;38.21;45.04;;
48967;Laerm;46511;53.148;8.204;2023-11-18T04:13:13;49.13;39.34;62.30;;
48967;Laerm;46511;53.148;8.204;2023-11-18T04:15:40;48.73;39.46;64.33;;
48967;Laerm;46511;53.148;8.204;2023-11-18T04:18:06;43.29;39.34;60.89;;
48967;Laerm;46511;53.148;8.204;2023-11-18T04:20:37;49.11;39.58;62.54;;
48967;Laerm;46511;53.148;8.204;2023-11-18T04:23:04;49.56;39.21;63.56;;
48967;Laerm;46511;53.148;8.204;2023-11-18T04:25:31;45.81;39.08;62.68;;
48967;Laerm;46511;53.148;8.204;2023-11-18T04:27:57;42.46;38.67;55.22;;
48967;Laerm;46511;53.148;8.204;2023-11-18T04:30:24;52.68;39.34;66.39;;
48967;Laerm;46511;53.148;8.204;2023-11-18T04:32:57;42.12;37.70;47.98;;
48967;Laerm;46511;53.148;8.204;2023-11-18T04:35:24;42.79;38.52;51.42;;
48967;Laerm;46511;53.148;8.204;2023-11-18T04:37:55;43.93;39.21;56.46;;
48967;Laerm;46511;53.148;8.204;2023-11-18T04:40:22;51.85;37.88;64.59;;
48967;Laerm;46511;53.148;8.204;2023-11-18T04:42:54;44.35;39.21;59.50;;
48967;Laerm;46511;53.148;8.204;2023-11-18T04:45:25;42.67;38.81;55.18;;
48967;Laerm;46511;53.148;8.204;2023-11-18T04:47:56;50.38;38.52;67.32;;
48967;Laerm;46511;53.148;8.204;2023-11-18T04:50:23;48.16;38.95;62.50;;
48967;Laerm;46511;53.148;8.204;2023-11-18T04:52:49;45.58;37.70;60.65;;
48967;Laerm;46511;53.148;8.204;2023-11-18T04:55:16;46.11;39.92;62.07;;
48967;Laerm;46511;53.148;8.204;2023-11-18T04:57:47;43.23;38.81;46.80;;
48967;Laerm;46511;53.148;8.204;2023-11-18T05:00:19;51.37;39.35;68.13;;
48967;Laerm;46511;53.148;8.204;2023-11-18T05:02:50;44.31;39.81;50.69;;
48967;Laerm;46511;53.148;8.204;2023-11-18T05:05:21;42.53;39.21;44.58;;
48967;Laerm;46511;53.148;8.204;2023-11-18T05:07:48;42.42;38.67;45.27;;
48967;Laerm;46511;53.148;8.204;2023-11-18T05:10:15;42.32;38.52;46.71;;
48967;Laerm;46511;53.148;8.204;2023-11-18T05:12:46;42.74;38.95;48.46;;
48967;Laerm;46511;53.148;8.204;2023-11-18T05:15:22;42.87;38.67;50.18;;
48967;Laerm;46511;53.148;8.204;2023-11-18T05:17:52;50.58;39.58;66.52;;
48967;Laerm;46511;53.148;8.204;2023-11-18T05:20:24;47.20;40.13;63.27;;
48967;Laerm;46511;53.148;8.204;2023-11-18T05:22:56;53.40;40.53;68.15;;
48967;Laerm;46511;53.148;8.204;2023-11-18T05:25:22;51.46;40.71;68.61;;
48967;Laerm;46511;53.148;8.204;2023-11-18T05:27:53;47.10;40.03;64.99;;
48967;Laerm;46511;53.148;8.204;2023-11-18T05:30:20;53.17;39.68;69.54;;
48967;Laerm;46511;53.148;8.204;2023-11-18T05:32:51;43.81;40.13;59.60;;
48967;Laerm;46511;53.148;8.204;2023-11-18T05:35:23;43.81;40.71;53.77;;
48967;Laerm;46511;53.148;8.204;2023-11-18T05:37:54;44.02;40.98;51.11;;
48967;Laerm;46511;53.148;8.204;2023-11-18T05:40:21;51.54;39.46;66.69;;
48967;Laerm;46511;53.148;8.204;2023-11-18T05:42:48;52.25;40.71;66.08;;
48967;Laerm;46511;53.148;8.204;2023-11-18T05:45:23;52.13;39.81;66.67;;
48967;Laerm;46511;53.148;8.204;2023-11-18T05:47:58;43.26;40.53;51.45;;
48967;Laerm;46511;53.148;8.204;2023-11-18T05:50:24;43.90;40.53;56.41;;
48967;Laerm;46511;53.148;8.204;2023-11-18T05:52:53;45.96;40.62;64.76;;
48967;Laerm;46511;53.148;8.204;2023-11-18T05:55:19;49.55;40.53;63.42;;
48967;Laerm;46511;53.148;8.204;2023-11-18T05:57:45;49.17;40.53;70.53;;
48967;Laerm;46511;53.148;8.204;2023-11-18T06:00:14;52.17;40.23;67.56;;
48967;Laerm;46511;53.148;8.204;2023-11-18T06:02:42;43.57;40.13;50.50;;
48967;Laerm;46511;53.148;8.204;2023-11-18T06:05:09;49.62;40.13;65.06;;
48967;Laerm;46511;53.148;8.204;2023-11-18T06:07:39;46.60;40.89;65.75;;
48967;Laerm;46511;53.148;8.204;2023-11-18T06:10:09;46.65;42.35;60.82;;
48967;Laerm;46511;53.148;8.204;2023-11-18T06:12:40;58.02;45.69;67.38;;
48967;Laerm;46511;53.148;8.204;2023-11-18T06:15:12;46.18;41.30;59.70;;
48967;Laerm;46511;53.148;8.204;2023-11-18T06:17:45;45.38;41.53;61.07;;
48967;Laerm;46511;53.148;8.204;2023-11-18T06:20:16;51.08;40.13;63.74;;
48967;Laerm;46511;53.148;8.204;2023-11-18T06:22:48;48.82;40.80;64.05;;
48967;Laerm;46511;53.148;8.204;2023-11-18T06:25:15;54.48;41.75;65.89;;
48967;Laerm;46511;53.148;8.204;2023-11-18T06:27:45;56.40;43.04;65.47;;
48967;Laerm;46511;53.148;8.204;2023-11-18T06:30:12;46.86;41.38;63.29;;
48967;Laerm;46511;53.148;8.204;2023-11-18T06:32:39;52.79;41.46;68.50;;
48967;Laerm;46511;53.148;8.204;2023-11-18T06:35:05;52.86;41.89;65.82;;
48967;Laerm;46511;53.148;8.204;2023-11-18T06:37:32;48.14;41.22;64.99;;
48967;Laerm;46511;53.148;8.204;2023-11-18T06:39:59;55.16;42.29;66.75;;
48967;Laerm;46511;53.148;8.204;2023-11-18T06:42:25;52.42;42.22;66.75;;
48967;Laerm;46511;53.148;8.204;2023-11-18T06:44:51;53.48;41.30;64.04;;
48967;Laerm;46511;53.148;8.204;2023-11-18T06:47:23;44.53;42.03;55.73;;
48967;Laerm;46511;53.148;8.204;2023-11-18T06:49:50;55.93;42.22;66.38;;
48967;Laerm;46511;53.148;8.204;2023-11-18T06:52:18;55.62;41.89;70.24;;
48967;Laerm;46511;53.148;8.204;2023-11-18T06:54:45;49.50;42.41;69.48;;
48967;Laerm;46511;53.148;8.204;2023-11-18T06:57:11;51.95;42.22;65.29;;
48967;Laerm;46511;53.148;8.204;2023-11-18T06:59:38;50.21;41.30;70.75;;
48967;Laerm;46511;53.148;8.204;2023-11-18T07:02:09;52.35;41.06;66.61;;
48967;Laerm;46511;53.148;8.204;2023-11-18T07:04:36;48.95;41.89;64.34;;
48967;Laerm;46511;53.148;8.204;2023-11-18T07:07:09;55.38;42.82;67.70;;
48967;Laerm;46511;53.148;8.204;2023-11-18T07:09:36;52.68;42.58;66.05;;
48967;Laerm;46511;53.148;8.204;2023-11-18T07:12:03;57.21;43.04;69.70;;
48967;Laerm;46511;53.148;8.204;2023-11-18T07:14:29;54.50;42.41;66.77;;
48967;Laerm;46511;53.148;8.204;2023-11-18T07:16:56;52.57;42.22;66.87;;
48967;Laerm;46511;53.148;8.204;2023-11-18T07:19:22;49.93;41.96;61.94;;
48967;Laerm;46511;53.148;8.204;2023-11-18T07:21:50;49.95;43.04;64.59;;
48967;Laerm;46511;53.148;8.204;2023-11-18T07:24:16;60.38;45.69;69.95;;
48967;Laerm;46511;53.148;8.204;2023-11-18T07:26:48;56.09;44.87;65.85;;
48967;Laerm;46511;53.148;8.204;2023-11-18T07:29:17;49.48;42.65;64.51;;
48967;Laerm;46511;53.148;8.204;2023-11-18T07:31:43;58.13;43.77;69.49;;
48967;Laerm;46511;53.148;8.204;2023-11-18T07:34:11;51.21;42.59;63.98;;
48967;Laerm;46511;53.148;8.204;2023-11-18T07:36:38;55.63;42.98;69.04;;
48967;Laerm;46511;53.148;8.204;2023-11-18T07:39:09;57.21;43.58;68.00;;
48967;Laerm;46511;53.148;8.204;2023-11-18T07:41:47;52.20;42.88;63.61;;
48967;Laerm;46511;53.148;8.204;2023-11-18T07:44:13;48.01;43.44;61.40;;
48967;Laerm;46511;53.148;8.204;2023-11-18T07:46:39;52.18;43.49;71.98;;
48967;Laerm;46511;53.148;8.204;2023-11-18T07:49:13;53.44;43.24;67.01;;
48967;Laerm;46511;53.148;8.204;2023-11-18T07:51:40;54.67;43.58;68.58;;
48967;Laerm;46511;53.148;8.204;2023-11-18T07:54:08;55.16;43.81;67.08;;
48967;Laerm;46511;53.148;8.204;2023-11-18T07:56:36;53.95;43.90;68.54;;
48967;Laerm;46511;53.148;8.204;2023-11-18T07:59:02;53.42;44.23;65.54;;
48967;Laerm;46511;53.148;8.204;2023-11-18T08:01:29;55.90;43.58;65.55;;
48967;Laerm;46511;53.148;8.204;2023-11-18T08:03:56;46.08;42.93;62.37;;
48967;Laerm;46511;53.148;8.204;2023-11-18T08:06:27;54.35;44.07;67.68;;
48967;Laerm;46511;53.148;8.204;2023-11-18T08:08:54;56.23;43.72;70.58;;
48967;Laerm;46511;53.148;8.204;2023-11-18T08:11:20;54.90;43.90;66.65;;
48967;Laerm;46511;53.148;8.204;2023-11-18T08:13:47;55.97;43.63;69.22;;
48967;Laerm;46511;53.148;8.204;2023-11-18T08:16:14;50.92;43.72;64.71;;
48967;Laerm;46511;53.148;8.204;2023-11-18T08:18:40;54.26;44.31;64.96;;
48967;Laerm;46511;53.148;8.204;2023-11-18T08:21:12;54.45;43.39;71.50;;
48967;Laerm;46511;53.148;8.204;2023-11-18T08:23:39;55.54;44.19;67.04;;
48967;Laerm;46511;53.148;8.204;2023-11-18T08:26:05;51.51;43.81;62.19;;
48967;Laerm;46511;53.148;8.204;2023-11-18T08:28:36;52.71;43.86;64.89;;
48967;Laerm;46511;53.148;8.204;2023-11-18T08:31:03;52.35;43.77;64.52;;
48967;Laerm;46511;53.148;8.204;2023-11-18T08:33:29;54.12;44.07;67.51;;
48967;Laerm;46511;53.148;8.204;2023-11-18T08:35:56;55.59;44.47;68.33;;
48967;Laerm;46511;53.148;8.204;2023-11-18T08:38:27;51.06;44.35;66.21;;
48967;Laerm;46511;53.148;8.204;2023-11-18T08:40:54;53.63;43.63;65.14;;
48967;Laerm;46511;53.148;8.204;2023-11-18T08:43:26;52.00;43.77;65.39;;
48967;Laerm;46511;53.148;8.204;2023-11-18T08:45:59;54.58;43.94;64.92;;
48967;Laerm;46511;53.148;8.204;2023-11-18T08:48:31;58.26;44.80;68.06;;
48967;Laerm;46511;53.148;8.204;2023-11-18T08:51:00;55.20;44.07;66.08;;
48967;Laerm;46511;53.148;8.204;2023-11-18T08:53:34;54.13;45.11;65.37;;
48967;Laerm;46511;53.148;8.204;2023-11-18T08:56:10;57.48;44.43;69.15;;
48967;Laerm;46511;53.148;8.204;2023-11-18T08:58:43;56.49;44.80;68.15;;
48967;Laerm;46511;53.148;8.204;2023-11-18T09:01:11;54.78;44.31;68.45;;
48967;Laerm;46511;53.148;8.204;2023-11-18T09:03:41;59.15;45.54;68.15;;
48967;Laerm;46511;53.148;8.204;2023-11-18T09:06:14;59.10;44.76;67.03;;
48967;Laerm;46511;53.148;8.204;2023-11-18T09:08:47;58.19;44.19;73.93;;
48967;Laerm;46511;53.148;8.204;2023-11-18T09:11:19;52.74;44.07;66.69;;
48967;Laerm;46511;53.148;8.204;2023-11-18T09:13:51;53.27;44.16;65.84;;
48967;Laerm;46511;53.148;8.204;2023-11-18T09:16:23;54.52;44.31;66.08;;
48967;Laerm;46511;53.148;8.204;2023-11-18T09:18:53;53.95;44.03;67.51;;
48967;Laerm;46511;53.148;8.204;2023-11-18T09:21:19;52.96;43.77;65.22;;
48967;Laerm;46511;53.148;8.204;2023-11-18T09:23:51;55.35;44.39;68.67;;
48967;Laerm;46511;53.148;8.204;2023-11-18T09:26:17;56.94;44.58;70.43;;
48967;Laerm;46511;53.148;8.204;2023-11-18T09:28:44;54.90;44.23;63.05;;
48967;Laerm;46511;53.148;8.204;2023-11-18T09:31:13;59.55;44.97;69.46;;
48967;Laerm;46511;53.148;8.204;2023-11-18T09:33:41;53.29;44.23;69.27;;
48967;Laerm;46511;53.148;8.204;2023-11-18T09:36:19;53.79;43.49;64.62;;
48967;Laerm;46511;53.148;8.204;2023-11-18T09:38:46;58.86;43.77;69.74;;
48967;Laerm;46511;53.148;8.204;2023-11-18T09:41:22;51.58;43.99;65.16;;
48967;Laerm;46511;53.148;8.204;2023-11-18T09:43:50;56.15;44.69;69.52;;
48967;Laerm;46511;53.148;8.204;2023-11-18T09:46:23;51.99;44.03;65.37;;
48967;Laerm;46511;53.148;8.204;2023-11-18T09:49:17;52.18;44.43;68.65;;
48967;Laerm;46511;53.148;8.204;2023-11-18T09:51:56;54.74;44.47;64.62;;
48967;Laerm;46511;53.148;8.204;2023-11-18T09:54:27;52.98;44.69;63.41;;
48967;Laerm;46511;53.148;8.204;2023-11-18T09:57:08;58.56;45.20;72.49;;
48967;Laerm;46511;53.148;8.204;2023-11-18T09:59:49;57.70;44.51;69.47;;
48967;Laerm;46511;53.148;8.204;2023-11-18T10:02:25;57.23;43.39;67.95;;
48967;Laerm;46511;53.148;8.204;2023-11-18T10:04:58;51.51;43.54;61.96;;
48967;Laerm;46511;53.148;8.204;2023-11-18T10:07:27;55.92;43.63;66.29;;
48967;Laerm;46511;53.148;8.204;2023-11-18T10:09:54;56.79;44.76;69.87;;
48967;Laerm;46511;53.148;8.204;2023-11-18T10:12:24;56.43;44.11;71.94;;
48967;Laerm;46511;53.148;8.204;2023-11-18T10:14:57;56.37;43.86;67.26;;
48967;Laerm;46511;53.148;8.204;2023-11-18T10:17:29;56.03;43.90;67.78;;
48967;Laerm;46511;53.148;8.204;2023-11-18T10:20:01;56.33;44.65;65.46;;
48967;Laerm;46511;53.148;8.204;2023-11-18T10:22:43;56.80;44.23;69.02;;
48967;Laerm;46511;53.148;8.204;2023-11-18T10:25:23;56.20;43.63;67.28;;
48967;Laerm;46511;53.148;8.204;2023-11-18T10:27:55;55.62;44.62;67.35;;
48967;Laerm;46511;53.148;8.204;2023-11-18T10:30:23;55.40;44.39;71.79;;
48967;Laerm;46511;53.148;8.204;2023-11-18T10:33:00;57.28;44.65;70.48;;
48967;Laerm;46511;53.148;8.204;2023-11-18T10:35:36;56.47;45.48;66.18;;
48967;Laerm;46511;53.148;8.204;2023-11-18T10:38:03;56.76;45.33;67.50;;
48967;Laerm;46511;53.148;8.204;2023-11-18T10:40:33;56.97;44.11;75.28;;
48967;Laerm;46511;53.148;8.204;2023-11-18T10:43:08;58.09;44.51;69.57;;
48967;Laerm;46511;53.148;8.204;2023-11-18T10:45:36;53.25;44.54;63.82;;
48967;Laerm;46511;53.148;8.204;2023-11-18T10:48:11;53.18;44.31;64.18;;
48967;Laerm;46511;53.148;8.204;2023-11-18T10:50:46;55.25;44.19;65.61;;
48967;Laerm;46511;53.148;8.204;2023-11-18T10:53:18;54.57;45.01;68.25;;
48967;Laerm;46511;53.148;8.204;2023-11-18T10:55:49;56.85;44.03;68.72;;
48967;Laerm;46511;53.148;8.204;2023-11-18T10:58:16;54.77;44.27;70.28;;
48967;Laerm;46511;53.148;8.204;2023-11-18T11:00:50;56.14;44.43;68.74;;
48967;Laerm;46511;53.148;8.204;2023-11-18T11:03:22;56.00;44.35;66.74;;
48967;Laerm;46511;53.148;8.204;2023-11-18T11:05:56;55.63;43.99;71.01;;
48967;Laerm;46511;53.148;8.204;2023-11-18T11:08:23;53.24;43.63;65.85;;
48967;Laerm;46511;53.148;8.204;2023-11-18T11:10:57;58.15;44.35;69.60;;
48967;Laerm;46511;53.148;8.204;2023-11-18T11:13:31;56.06;44.07;65.55;;
48967;Laerm;46511;53.148;8.204;2023-11-18T11:16:05;57.35;43.72;67.51;;
48967;Laerm;46511;53.148;8.204;2023-11-18T11:18:42;56.71;44.39;70.13;;
48967;Laerm;46511;53.148;8.204;2023-11-18T11:21:15;59.26;45.66;69.48;;
48967;Laerm;46511;53.148;8.204;2023-11-18T11:24:04;58.35;45.39;67.99;;
48967;Laerm;46511;53.148;8.204;2023-11-18T11:26:45;55.04;43.81;64.38;;
48967;Laerm;46511;53.148;8.204;2023-11-18T11:29:45;55.58;44.47;65.31;;
48967;Laerm;46511;53.148;8.204;2023-11-18T11:32:31;55.37;43.77;70.97;;
48967;Laerm;46511;53.148;8.204;2023-11-18T11:35:16;54.50;43.49;66.68;;
48967;Laerm;46511;53.148;8.204;2023-11-18T11:37:48;58.01;44.80;76.59;;
48967;Laerm;46511;53.148;8.204;2023-11-18T11:40:21;53.11;43.99;63.22;;
48967;Laerm;46511;53.148;8.204;2023-11-18T11:42:53;53.43;43.54;64.31;;
48967;Laerm;46511;53.148;8.204;2023-11-18T11:45:27;57.41;44.73;67.42;;
48967;Laerm;46511;53.148;8.204;2023-11-18T11:48:03;56.27;43.68;66.40;;
48967;Laerm;46511;53.148;8.204;2023-11-18T11:53:36;54.69;44.03;72.05;;
48967;Laerm;46511;53.148;8.204;2023-11-18T11:56:16;58.00;44.39;69.62;;
48967;Laerm;46511;53.148;8.204;2023-11-18T11:58:50;57.69;44.03;67.37;;
48967;Laerm;46511;53.148;8.204;2023-11-18T12:01:24;54.57;43.68;74.41;;
48967;Laerm;46511;53.148;8.204;2023-11-18T12:04:19;52.61;43.99;66.80;;
48967;Laerm;46511;53.148;8.204;2023-11-18T12:06:49;57.88;43.54;79.87;;
48967;Laerm;46511;53.148;8.204;2023-11-18T12:09:29;57.33;45.01;67.24;;
48967;Laerm;46511;53.148;8.204;2023-11-18T12:12:05;56.50;44.76;65.76;;
48967;Laerm;46511;53.148;8.204;2023-11-18T12:14:54;57.96;44.87;67.77;;
48967;Laerm;46511;53.148;8.204;2023-11-18T12:17:25;54.93;43.81;66.81;;
48967;Laerm;46511;53.148;8.204;2023-11-18T12:20:03;56.64;44.47;69.28;;
48967;Laerm;46511;53.148;8.204;2023-11-18T12:23:04;55.72;44.15;69.69;;
48967;Laerm;46511;53.148;8.204;2023-11-18T12:25:45;55.05;42.74;63.33;;
48967;Laerm;46511;53.148;8.204;2023-11-18T12:28:17;58.43;44.03;69.14;;
48967;Laerm;46511;53.148;8.204;2023-11-18T12:30:53;55.75;43.54;67.66;;
48967;Laerm;46511;53.148;8.204;2023-11-18T12:41:48;55.80;43.77;67.16;;
48967;Laerm;46511;53.148;8.204;2023-11-18T12:44:30;56.50;43.72;66.35;;
48967;Laerm;46511;53.148;8.204;2023-11-18T12:47:14;55.03;43.58;66.95;;
48967;Laerm;46511;53.148;8.204;2023-11-18T12:49:49;55.29;43.90;65.86;;
48967;Laerm;46511;53.148;8.204;2023-11-18T12:52:31;55.73;43.68;65.51;;
48967;Laerm;46511;53.148;8.204;2023-11-18T12:55:02;57.72;44.95;71.64;;
48967;Laerm;46511;53.148;8.204;2023-11-18T12:57:34;56.20;44.31;70.98;;
48967;Laerm;46511;53.148;8.204;2023-11-18T13:00:05;54.97;44.19;73.52;;
48967;Laerm;46511;53.148;8.204;2023-11-18T13:02:37;56.84;44.35;68.48;;
48967;Laerm;46511;53.148;8.204;2023-11-18T13:05:10;52.95;43.39;68.65;;
48967;Laerm;46511;53.148;8.204;2023-11-18T13:07:41;56.21;43.94;69.48;;
48967;Laerm;46511;53.148;8.204;2023-11-18T13:10:15;54.68;43.90;66.23;;
48967;Laerm;46511;53.148;8.204;2023-11-18T13:12:47;53.52;43.49;65.40;;
48967;Laerm;46511;53.148;8.204;2023-11-18T13:15:19;55.79;44.04;67.13;;
48967;Laerm;46511;53.148;8.204;2023-11-18T13:18:00;56.10;43.94;70.00;;
48967;Laerm;46511;53.148;8.204;2023-11-18T13:20:27;57.07;44.23;71.45;;
48967;Laerm;46511;53.148;8.204;2023-11-18T13:22:59;58.52;44.54;69.36;;
48967;Laerm;46511;53.148;8.204;2023-11-18T13:25:32;49.60;44.58;57.68;;
48967;Laerm;46511;53.148;8.204;2023-11-18T13:28:09;56.69;46.02;70.47;;
48967;Laerm;46511;53.148;8.204;2023-11-18T13:30:41;57.43;44.23;69.80;;
48967;Laerm;46511;53.148;8.204;2023-11-18T13:33:09;60.77;45.11;70.79;;
48967;Laerm;46511;53.148;8.204;2023-11-18T13:35:40;55.72;43.86;67.29;;
48967;Laerm;46511;53.148;8.204;2023-11-18T13:38:14;57.65;45.27;73.37;;
48967;Laerm;46511;53.148;8.204;2023-11-18T13:40:46;57.35;44.11;66.06;;
48967;Laerm;46511;53.148;8.204;2023-11-18T13:43:18;56.75;43.77;69.96;;
48967;Laerm;46511;53.148;8.204;2023-11-18T13:45:53;58.00;43.90;67.52;;
48967;Laerm;46511;53.148;8.204;2023-11-18T13:48:24;54.90;44.15;70.48;;
48967;Laerm;46511;53.148;8.204;2023-11-18T13:50:55;56.12;44.15;87.03;;
48967;Laerm;46511;53.148;8.204;2023-11-18T13:53:27;60.90;43.58;92.93;;
48967;Laerm;46511;53.148;8.204;2023-11-18T13:55:59;58.19;43.29;76.78;;
48967;Laerm;46511;53.148;8.204;2023-11-18T13:58:37;58.05;43.99;84.48;;
48967;Laerm;46511;53.148;8.204;2023-11-18T14:01:08;54.18;44.11;84.38;;
48967;Laerm;46511;53.148;8.204;2023-11-18T14:03:37;59.39;44.54;92.31;;
48967;Laerm;46511;53.148;8.204;2023-11-18T14:06:08;59.66;45.57;81.71;;
48967;Laerm;46511;53.148;8.204;2023-11-18T14:08:39;65.64;44.07;101.29;;
48967;Laerm;46511;53.148;8.204;2023-11-18T14:11:05;61.33;45.66;91.26;;
48967;Laerm;46511;53.148;8.204;2023-11-18T14:13:32;58.08;45.14;89.04;;
48967;Laerm;46511;53.148;8.204;2023-11-18T14:16:01;57.18;44.19;80.02;;
48967;Laerm;46511;53.148;8.204;2023-11-18T14:18:28;55.55;44.80;76.58;;
48967;Laerm;46511;53.148;8.204;2023-11-18T14:21:02;58.16;44.90;81.99;;